createdAt,value
2019-04-01T00:03:52.435Z,6.00
2019-04-01T00:08:55.181Z,5.96
2019-04-01T00:13:57.905Z,6.02
2019-04-01T00:19:03.385Z,5.87
2019-04-01T00:24:05.339Z,5.84
2019-04-01T00:29:08.154Z,5.83
2019-04-01T00:34:10.888Z,5.80
2019-04-01T00:39:13.686Z,5.72
2019-04-01T00:44:16.400Z,5.74
2019-04-01T00:49:19.125Z,5.94
2019-04-01T00:54:22.428Z,5.82
2019-04-01T00:59:25.343Z,5.78
2019-04-01T01:04:28.090Z,5.83
2019-04-01T01:09:30.855Z,5.84
2019-04-01T01:14:33.655Z,5.87
2019-04-01T01:19:36.398Z,5.84
2019-04-01T01:24:39.105Z,5.76
2019-04-01T01:29:41.836Z,5.53
2019-04-01T01:34:44.553Z,5.46
2019-04-01T01:39:47.296Z,5.55
2019-04-01T01:44:50.029Z,5.50
2019-04-01T01:49:52.719Z,5.42
2019-04-01T01:54:55.568Z,5.35
2019-04-01T01:59:58.423Z,5.33
2019-04-01T02:05:01.130Z,5.30
2019-04-01T02:10:04.524Z,5.18
2019-04-01T02:15:07.606Z,5.08
2019-04-01T02:20:10.453Z,4.97
2019-04-01T02:25:13.144Z,5.09
2019-04-01T02:30:15.844Z,5.02
2019-04-01T02:35:18.529Z,4.94
2019-04-01T02:40:22.144Z,4.95
2019-04-01T02:45:25.232Z,4.81
2019-04-01T02:50:27.930Z,4.67
2019-04-01T02:55:30.686Z,4.47
2019-04-01T03:00:33.513Z,4.42
2019-04-01T03:05:36.223Z,4.40
2019-04-01T03:10:38.944Z,4.41
2019-04-01T03:15:41.663Z,4.59
2019-04-01T03:20:44.367Z,4.62
2019-04-01T03:25:47.100Z,4.70
2019-04-01T03:30:49.803Z,4.71
2019-04-01T03:35:53.349Z,4.66
2019-04-01T03:40:56.088Z,4.48
2019-04-01T03:45:58.799Z,4.34
2019-04-01T03:51:01.568Z,4.27
2019-04-01T03:56:04.651Z,4.27
2019-04-01T04:01:07.481Z,4.16
2019-04-01T04:06:10.253Z,4.02
2019-04-01T04:11:12.977Z,4.08
2019-04-01T04:16:15.896Z,4.04
2019-04-01T04:21:18.704Z,4.20
2019-04-01T04:26:21.394Z,4.32
2019-04-01T04:31:24.141Z,4.28
2019-04-01T04:36:26.850Z,4.26
2019-04-01T04:41:29.582Z,4.29
2019-04-01T04:46:32.322Z,4.30
2019-04-01T04:51:35.061Z,4.27
2019-04-01T04:56:37.871Z,4.28
2019-04-01T05:01:40.751Z,4.13
2019-04-01T05:06:43.475Z,4.19
2019-04-01T05:11:46.252Z,4.20
2019-04-01T05:16:49.052Z,4.19
2019-04-01T05:21:53.129Z,4.24
2019-04-01T05:26:58.471Z,4.30
2019-04-01T05:32:03.578Z,4.29
2019-04-01T05:37:08.894Z,4.59
2019-04-01T05:42:11.329Z,4.56
2019-04-01T05:47:14.125Z,4.64
2019-04-01T05:52:16.843Z,4.66
2019-04-01T05:57:19.566Z,4.76
2019-04-01T06:02:22.274Z,4.95
2019-04-01T06:07:25.955Z,5.00
2019-04-01T06:12:29.232Z,5.17
2019-04-01T06:17:32.042Z,5.21
2019-04-01T06:22:34.745Z,5.37
2019-04-01T06:27:37.445Z,5.61
2019-04-01T06:32:40.399Z,5.69
2019-04-01T06:37:43.123Z,5.80
2019-04-01T06:42:45.952Z,5.98
2019-04-01T06:47:48.676Z,6.31
2019-04-01T06:52:51.442Z,6.44
2019-04-01T06:57:56.086Z,6.58
2019-04-01T07:03:10.499Z,6.09
2019-04-01T07:08:15.590Z,6.88
2019-04-01T07:13:23.591Z,7.24
2019-04-01T07:18:34.224Z,7.28
2019-04-01T07:23:41.669Z,7.33
2019-04-01T07:28:51.140Z,7.73
2019-04-01T07:33:53.912Z,7.77
2019-04-01T07:38:56.705Z,7.95
2019-04-01T07:43:59.391Z,8.06
2019-04-01T07:49:02.085Z,8.11
2019-04-01T07:54:04.788Z,8.25
2019-04-01T07:59:07.588Z,8.39
2019-04-01T08:04:10.285Z,8.63
2019-04-01T08:09:13.028Z,8.67
2019-04-01T08:14:17.278Z,8.89
2019-04-01T08:19:20.116Z,9.17
2019-04-01T08:24:23.807Z,9.40
2019-04-01T08:29:30.349Z,9.54
2019-04-01T08:34:31.965Z,9.74
2019-04-01T08:39:36.502Z,9.80
2019-04-01T08:44:40.885Z,9.78
2019-04-01T08:49:56.714Z,10.14
2019-04-01T08:55:09.820Z,10.33
2019-04-01T09:00:27.144Z,10.25
2019-04-01T09:05:34.949Z,10.48
2019-04-01T09:10:43.203Z,10.11
2019-04-01T09:15:51.340Z,10.16
2019-04-01T09:21:00.971Z,10.23
2019-04-01T09:26:07.683Z,10.97
2019-04-01T09:31:14.186Z,10.99
2019-04-01T09:36:25.140Z,11.08
2019-04-01T09:41:28.274Z,11.25
2019-04-01T09:46:30.960Z,11.50
2019-04-01T09:51:47.549Z,11.60
2019-04-01T09:56:50.512Z,11.80
2019-04-01T10:02:06.771Z,11.49
2019-04-01T10:07:16.226Z,11.43
2019-04-01T10:12:48.403Z,11.71
2019-04-01T10:17:51.544Z,11.88
2019-04-01T10:22:54.363Z,12.05
2019-04-01T10:27:58.365Z,12.02
2019-04-01T10:33:02.593Z,12.52
2019-04-01T10:38:05.527Z,12.35
2019-04-01T10:43:08.213Z,12.62
2019-04-01T10:48:10.940Z,12.74
2019-04-01T10:53:13.742Z,12.60
2019-04-01T10:58:16.661Z,12.41
2019-04-01T11:03:19.403Z,12.68
2019-04-01T11:08:22.153Z,12.82
2019-04-01T11:13:24.822Z,12.82
2019-04-01T11:18:27.937Z,12.77
2019-04-01T11:23:30.620Z,13.04
2019-04-01T11:28:34.677Z,12.77
2019-04-01T11:33:37.559Z,12.90
2019-04-01T11:38:40.222Z,13.04
2019-04-01T11:43:42.919Z,12.96
2019-04-01T11:48:45.757Z,13.06
2019-04-01T11:53:48.539Z,13.43
2019-04-01T11:58:51.234Z,13.54
2019-04-01T12:03:53.913Z,13.15
2019-04-01T12:08:56.597Z,13.26
2019-04-01T12:13:59.291Z,13.39
2019-04-01T12:19:01.993Z,13.36
2019-04-01T12:24:04.733Z,13.34
2019-04-01T12:29:07.511Z,13.43
2019-04-01T12:34:10.419Z,13.78
2019-04-01T12:39:13.119Z,13.83
2019-04-01T12:44:15.843Z,13.56
2019-04-01T12:49:18.527Z,13.72
2019-04-01T12:54:21.216Z,13.79
2019-04-01T12:59:24.374Z,13.47
2019-04-01T13:04:27.216Z,13.67
2019-04-01T13:09:29.914Z,13.99
2019-04-01T13:14:32.596Z,13.92
2019-04-01T13:19:35.289Z,14.02
2019-04-01T13:24:37.999Z,14.12
2019-04-01T13:29:40.690Z,14.52
2019-04-01T13:34:45.049Z,14.44
2019-04-01T13:39:48.107Z,14.38
2019-04-01T13:44:51.545Z,14.28
2019-04-01T13:49:54.827Z,14.52
2019-04-01T13:54:57.583Z,14.69
2019-04-01T14:00:00.288Z,14.46
2019-04-01T14:05:05.928Z,14.59
2019-04-01T14:10:08.760Z,14.51
2019-04-01T14:15:12.423Z,14.77
2019-04-01T14:20:15.240Z,14.36
2019-04-01T14:25:17.928Z,14.32
2019-04-01T14:30:21.463Z,14.59
2019-04-01T14:35:24.569Z,14.65
2019-04-01T14:40:27.277Z,14.51
2019-04-01T14:45:29.959Z,14.73
2019-04-01T14:50:32.700Z,14.95
2019-04-01T14:55:35.804Z,14.83
2019-04-01T15:00:38.735Z,14.67
2019-04-01T15:05:41.458Z,14.56
2019-04-01T15:10:44.233Z,15.06
2019-04-01T15:15:47.261Z,14.89
2019-04-01T15:20:49.948Z,14.98
2019-04-01T15:25:54.407Z,15.13
2019-04-01T15:30:57.349Z,15.20
2019-04-01T15:36:00.044Z,14.97
2019-04-01T15:41:02.753Z,14.99
2019-04-01T15:46:06.378Z,14.93
2019-04-01T15:51:09.606Z,15.07
2019-04-01T15:56:12.673Z,15.24
2019-04-01T16:01:18.073Z,15.33
2019-04-01T16:06:21.231Z,15.22
2019-04-01T16:11:24.167Z,14.93
2019-04-01T16:16:26.937Z,14.63
2019-04-01T16:21:31.409Z,14.70
2019-04-01T16:26:34.231Z,14.76
2019-04-01T16:31:36.906Z,14.61
2019-04-01T16:36:39.607Z,14.57
2019-04-01T16:41:42.296Z,14.34
2019-04-01T16:46:44.963Z,14.01
2019-04-01T16:51:47.655Z,14.04
2019-04-01T16:56:50.366Z,14.00
2019-04-01T17:01:53.165Z,13.81
2019-04-01T17:06:55.888Z,13.60
2019-04-01T17:11:59.245Z,13.47
2019-04-01T17:17:02.194Z,13.54
2019-04-01T17:22:04.890Z,13.45
2019-04-01T17:27:11.905Z,13.19
2019-04-01T17:32:14.591Z,13.29
2019-04-01T17:37:17.265Z,13.14
2019-04-01T17:42:19.991Z,13.04
2019-04-01T17:47:27.031Z,12.82
2019-04-01T17:52:28.124Z,12.76
2019-04-01T17:57:30.839Z,12.64
2019-04-01T18:02:33.531Z,12.55
2019-04-01T18:07:36.964Z,12.32
2019-04-01T18:12:39.647Z,12.36
2019-04-01T18:17:42.333Z,12.26
2019-04-01T18:22:45.041Z,12.09
2019-04-01T18:27:47.838Z,11.98
2019-04-01T18:32:54.796Z,11.84
2019-04-01T18:37:55.487Z,11.71
2019-04-01T18:43:00.005Z,11.52
2019-04-01T18:48:02.901Z,11.63
2019-04-01T18:53:07.167Z,11.47
2019-04-01T18:58:10.139Z,11.34
2019-04-01T19:03:12.827Z,11.28
2019-04-01T19:08:15.521Z,11.19
2019-04-01T19:13:18.226Z,11.07
2019-04-01T19:18:20.895Z,11.04
2019-04-01T19:23:23.589Z,10.99
2019-04-01T19:28:26.271Z,10.98
2019-04-01T19:33:29.025Z,11.00
2019-04-01T19:38:31.735Z,10.95
2019-04-01T19:43:34.411Z,10.84
2019-04-01T19:48:37.112Z,10.80
2019-04-01T19:53:39.798Z,10.70
2019-04-01T19:58:42.502Z,10.67
2019-04-01T20:03:45.199Z,10.57
2019-04-01T20:08:49.685Z,10.45
2019-04-01T20:13:54.977Z,10.38
2019-04-01T20:18:57.221Z,10.35
2019-04-01T20:23:59.907Z,10.33
2019-04-01T20:29:02.693Z,10.18
2019-04-01T20:34:05.376Z,10.15
2019-04-01T20:39:08.506Z,10.08
2019-04-01T20:44:12.263Z,10.05
2019-04-01T20:49:15.170Z,9.98
2019-04-01T20:54:17.868Z,9.88
2019-04-01T20:59:20.580Z,9.81
2019-04-01T21:04:23.270Z,9.78
2019-04-01T21:09:25.950Z,9.73
2019-04-01T21:14:28.627Z,9.63
2019-04-01T21:19:31.345Z,9.53
2019-04-01T21:24:34.442Z,9.35
2019-04-01T21:29:37.235Z,9.27
2019-04-01T21:34:40.252Z,9.35
2019-04-01T21:39:43.440Z,9.26
2019-04-01T21:44:47.032Z,9.29
2019-04-01T21:49:49.929Z,9.22
2019-04-01T21:54:52.660Z,9.09
2019-04-01T21:59:55.388Z,9.16
2019-04-01T22:04:58.078Z,9.12
2019-04-01T22:10:00.779Z,9.02
2019-04-01T22:15:03.793Z,8.84
2019-04-01T22:20:06.793Z,8.83
2019-04-01T22:25:09.482Z,8.80
2019-04-01T22:30:12.379Z,8.74
2019-04-01T22:35:15.173Z,8.79
2019-04-01T22:40:17.931Z,8.78
2019-04-01T22:45:21.054Z,8.79
2019-04-01T22:50:23.855Z,8.65
2019-04-01T22:55:28.077Z,8.56
2019-04-01T23:00:31.063Z,8.56
2019-04-01T23:05:33.759Z,8.51
2019-04-01T23:10:36.439Z,8.31
2019-04-01T23:15:39.120Z,8.33
2019-04-01T23:20:41.842Z,8.37
2019-04-01T23:25:44.523Z,8.35
2019-04-01T23:30:49.608Z,8.32
2019-04-01T23:35:52.331Z,8.34
2019-04-01T23:40:55.029Z,8.21
2019-04-01T23:45:57.722Z,8.18
2019-04-01T23:51:00.405Z,8.18
2019-04-01T23:56:03.293Z,8.17
